Mazeikiai, Lithuania

4:01 AM EET on January 23, 2018 (GMT +0200)
Siauliai International | | Change Station

Elev 351 ft 55.93 °N, 23.32 °E | Updated 11 minutes ago

Partly Cloudy
Partly Cloudy
16 °F
Feels Like 3 °F
N
10
Wind Variable Wind from WSW

Today
High -- | Low -- °F
--% Chance of Precip.
Yesterday
High -- | Low -- °F
Precip. -- in
Pressure 30.18 in
Visibility 3.7 miles
Clouds Overcast 300 ft
Windchill 3 °F
Dew Point 16 °F
Humidity 100%
Rainfall 0.00 in
Snow Depth Not available.
8:42 AM 4:42 PM
Waxing Crescent, 31% visible
METAR EYSA 230150Z AUTO 24009KT 6000NDV BR OVC003 M09/M09 Q1022 R14L/19//95 R14R/19//95
Pressure 30.18 in
Visibility 3.7 miles
Clouds Overcast 300 ft
Windchill 3 °F
Dew Point 16 °F
Humidity 100%
Rainfall 0.00 in
Snow Depth Not available.
8:42 AM 4:42 PM
Waxing Crescent, 31% visible
METAR EYSA 230150Z AUTO 24009KT 6000NDV BR OVC003 M09/M09 Q1022 R14L/19//95 R14R/19//95

Get Severe Weather Alerts

Thanks for signing up!

Be on the lookout for a verification email in your inbox.

You'll start receiving the daily forecast at 6 AM.

×

10-Day Weather Forecast

×

Almanac

Astronomy

Jan. 23, 2018 Rise Set
Actual Time
Civil Twilight
Nautical Twilight
Astronomical Twilight
Moon
Length of Visible Light
Length of Day
Tomorrow will be .
, % of the Moon is Illuminated

Today's Extremes

Country Highs Country Lows

Community

WunderPhotos

Category 6

Welcome to Category 6. This is the collective home for Weather Underground's featured writeups by Dr. Jeff Masters (right), Bob Henson (left), Chris Burt, and other regular contributors.

Nearby

Air Quality

  Air Quality AQ Index Pollutant
Not available.

Snow Depth

Station Depth Elevation

Earthquake Activity

City Distance Mag. Time & Date
Minimum magnitude displayed is 2.5.

Coastal Water Temperatures

Place Temperature

Stations

Nearby Weather Stations

Station Location Temp. Windchill Dew Point Humidity Wind Precip. Elev Updated Type